createdAt,value
2017-12-24T00:00:45.037Z,0
2017-12-24T00:01:45.607Z,0
2017-12-24T00:02:46.178Z,0
2017-12-24T00:03:46.748Z,0
2017-12-24T00:04:47.333Z,0
2017-12-24T00:05:47.905Z,0
2017-12-24T00:06:48.476Z,0
2017-12-24T00:07:49.047Z,0
2017-12-24T00:08:49.618Z,0
2017-12-24T00:09:50.191Z,0
2017-12-24T00:10:50.762Z,0
2017-12-24T00:11:51.349Z,0
2017-12-24T00:12:51.931Z,0
2017-12-24T00:13:52.504Z,0
2017-12-24T00:14:53.074Z,0
2017-12-24T00:15:53.651Z,0
2017-12-24T00:16:54.219Z,0
2017-12-24T00:17:54.788Z,0
2017-12-24T00:18:55.359Z,0
2017-12-24T00:19:55.931Z,0
2017-12-24T00:20:56.504Z,0
2017-12-24T00:21:57.074Z,0
2017-12-24T00:22:57.645Z,0
2017-12-24T00:23:58.216Z,0
2017-12-24T00:24:58.789Z,0
2017-12-24T00:25:59.357Z,0
2017-12-24T00:26:59.927Z,0
2017-12-24T00:28:00.500Z,0
2017-12-24T00:29:01.074Z,0
2017-12-24T00:30:01.643Z,0
2017-12-24T00:31:02.226Z,0
2017-12-24T00:32:02.796Z,0
2017-12-24T00:33:03.368Z,0
2017-12-24T00:34:03.938Z,0
2017-12-24T00:35:04.508Z,0
2017-12-24T00:36:05.082Z,0
2017-12-24T00:37:05.651Z,0
2017-12-24T00:38:06.222Z,0
2017-12-24T00:39:06.793Z,0
2017-12-24T00:40:07.368Z,0
2017-12-24T00:41:07.936Z,0
2017-12-24T00:42:08.506Z,0
2017-12-24T00:43:09.077Z,0
2017-12-24T00:44:09.648Z,0
2017-12-24T00:45:10.221Z,0
2017-12-24T00:46:10.792Z,0
2017-12-24T00:47:11.364Z,0
2017-12-24T00:48:11.934Z,0
2017-12-24T00:49:12.504Z,0
2017-12-24T00:50:13.074Z,0
2017-12-24T00:51:13.658Z,0
2017-12-24T00:52:14.229Z,0
2017-12-24T00:53:14.796Z,0
2017-12-24T00:54:15.367Z,0
2017-12-24T00:55:15.937Z,0
2017-12-24T00:56:16.508Z,0
2017-12-24T00:57:17.091Z,0
2017-12-24T00:58:17.675Z,0
2017-12-24T00:59:18.262Z,0
2017-12-24T01:00:18.832Z,0
2017-12-24T01:01:19.403Z,0
2017-12-24T01:02:19.973Z,0
2017-12-24T01:03:20.544Z,0
2017-12-24T01:04:21.116Z,0
2017-12-24T01:05:21.688Z,0
2017-12-24T01:06:22.260Z,0
2017-12-24T01:07:22.831Z,0
2017-12-24T01:08:23.416Z,0
2017-12-24T01:09:23.988Z,0
2017-12-24T01:10:24.558Z,0
2017-12-24T01:11:25.144Z,0
2017-12-24T01:12:25.714Z,0
2017-12-24T01:13:26.336Z,0
2017-12-24T01:14:26.906Z,0
2017-12-24T01:15:27.479Z,0
2017-12-24T01:16:28.050Z,0
2017-12-24T01:17:28.621Z,0
2017-12-24T01:18:29.198Z,0
2017-12-24T01:19:29.760Z,0
2017-12-24T01:20:30.330Z,0
2017-12-24T01:21:30.902Z,0
2017-12-24T01:22:31.474Z,0
2017-12-24T01:23:32.060Z,0
2017-12-24T01:24:32.631Z,0
2017-12-24T01:25:33.203Z,0
2017-12-24T01:26:33.776Z,0
2017-12-24T01:27:34.360Z,0
2017-12-24T01:28:34.944Z,0
2017-12-24T01:29:35.516Z,0
2017-12-24T01:30:36.087Z,0
2017-12-24T01:31:36.660Z,0
2017-12-24T01:32:37.231Z,0
2017-12-24T01:33:37.798Z,0
2017-12-24T01:34:38.368Z,0
2017-12-24T01:35:38.941Z,0
2017-12-24T01:36:39.512Z,0
2017-12-24T01:37:40.083Z,0
2017-12-24T01:38:40.654Z,0
2017-12-24T01:39:41.225Z,0
2017-12-24T01:40:41.796Z,0
2017-12-24T01:41:42.368Z,0
2017-12-24T01:42:42.940Z,0
2017-12-24T01:43:43.511Z,0
2017-12-24T01:44:44.082Z,0
2017-12-24T01:45:44.653Z,0
2017-12-24T01:46:45.225Z,0
2017-12-24T01:47:45.796Z,0
2017-12-24T01:48:46.369Z,0
2017-12-24T01:49:46.942Z,0
2017-12-24T01:50:47.514Z,0
2017-12-24T01:51:48.086Z,0
2017-12-24T01:52:48.655Z,0
2017-12-24T01:53:49.225Z,0
2017-12-24T01:54:49.796Z,0
2017-12-24T01:55:50.370Z,0
2017-12-24T01:56:50.941Z,0
2017-12-24T01:57:51.514Z,0
2017-12-24T01:58:52.085Z,0
2017-12-24T01:59:52.655Z,0
2017-12-24T02:00:53.225Z,0
2017-12-24T02:01:53.796Z,0
2017-12-24T02:02:54.372Z,0
2017-12-24T02:03:54.939Z,0
2017-12-24T02:04:55.511Z,0
2017-12-24T02:05:56.080Z,0
2017-12-24T02:06:56.667Z,0
2017-12-24T02:07:57.240Z,0
2017-12-24T02:08:57.859Z,0
2017-12-24T02:09:58.430Z,0
2017-12-24T02:10:59.003Z,0
2017-12-24T02:11:59.574Z,0
2017-12-24T02:13:00.146Z,0
2017-12-24T02:14:00.718Z,0
2017-12-24T02:15:01.290Z,0
2017-12-24T02:16:01.862Z,0
2017-12-24T02:17:02.432Z,0
2017-12-24T02:18:03.005Z,0
2017-12-24T02:19:03.588Z,0
2017-12-24T02:20:04.160Z,0
2017-12-24T02:21:04.748Z,0
2017-12-24T02:22:05.332Z,0
2017-12-24T02:23:05.906Z,0
2017-12-24T02:24:06.476Z,0
2017-12-24T02:25:07.047Z,0
2017-12-24T02:26:07.618Z,0
2017-12-24T02:27:08.189Z,0
2017-12-24T02:28:08.762Z,0
2017-12-24T02:29:09.332Z,0
2017-12-24T02:30:09.905Z,0
2017-12-24T02:31:10.477Z,0
2017-12-24T02:32:11.062Z,0
2017-12-24T02:33:11.634Z,0
2017-12-24T02:34:12.205Z,0
2017-12-24T02:35:12.775Z,0
2017-12-24T02:36:13.346Z,0
2017-12-24T02:37:13.919Z,0
2017-12-24T02:38:14.492Z,0
2017-12-24T02:39:15.062Z,0
2017-12-24T02:40:15.633Z,0
2017-12-24T02:41:16.204Z,0
2017-12-24T02:42:16.790Z,0
2017-12-24T02:43:17.360Z,0
2017-12-24T02:44:17.931Z,0
2017-12-24T02:45:18.502Z,0
2017-12-24T02:46:19.074Z,0
2017-12-24T02:47:19.645Z,0
2017-12-24T02:48:20.219Z,0
2017-12-24T02:49:20.789Z,0
2017-12-24T02:50:21.359Z,0
2017-12-24T02:51:21.930Z,0
2017-12-24T02:52:22.500Z,0
2017-12-24T02:53:23.075Z,0
2017-12-24T02:54:23.658Z,0
2017-12-24T02:55:24.231Z,0
2017-12-24T02:56:24.802Z,0
2017-12-24T02:57:25.388Z,0
2017-12-24T02:58:25.981Z,0
2017-12-24T02:59:26.557Z,0
2017-12-24T03:00:27.143Z,0
2017-12-24T03:01:27.716Z,0
2017-12-24T03:02:28.286Z,0
2017-12-24T03:03:28.857Z,0
2017-12-24T03:04:29.428Z,0
2017-12-24T03:05:30.014Z,0
2017-12-24T03:06:30.585Z,0
2017-12-24T03:07:31.158Z,0
2017-12-24T03:08:31.728Z,0
2017-12-24T03:09:32.302Z,0
2017-12-24T03:10:32.873Z,0
2017-12-24T03:11:33.444Z,0
2017-12-24T03:12:34.014Z,0
2017-12-24T03:13:34.585Z,0
2017-12-24T03:14:35.158Z,0
2017-12-24T03:15:35.728Z,0
2017-12-24T03:16:36.301Z,0
2017-12-24T03:17:36.886Z,0
2017-12-24T03:18:37.456Z,0
2017-12-24T03:19:38.029Z,0
2017-12-24T03:20:38.599Z,0
2017-12-24T03:21:39.184Z,0
2017-12-24T03:22:39.755Z,0
2017-12-24T03:23:40.326Z,0
2017-12-24T03:24:40.913Z,0
2017-12-24T03:25:41.483Z,0
2017-12-24T03:26:42.053Z,0
2017-12-24T03:27:42.625Z,0
2017-12-24T03:28:43.198Z,0
2017-12-24T03:29:43.768Z,0
2017-12-24T03:30:44.340Z,0
2017-12-24T03:31:44.910Z,0
2017-12-24T03:32:45.484Z,0
2017-12-24T03:33:46.050Z,0
2017-12-24T03:34:46.620Z,0
2017-12-24T03:35:47.192Z,0
2017-12-24T03:36:47.763Z,0
2017-12-24T03:37:48.337Z,0
2017-12-24T03:38:48.908Z,0
2017-12-24T03:39:49.477Z,0
2017-12-24T03:40:50.048Z,0
2017-12-24T03:41:50.618Z,0
2017-12-24T03:42:51.190Z,0
2017-12-24T03:43:51.761Z,0
2017-12-24T03:44:52.334Z,0
2017-12-24T03:45:52.921Z,0
2017-12-24T03:46:53.490Z,0
2017-12-24T03:47:54.066Z,0
2017-12-24T03:48:54.634Z,0
2017-12-24T03:49:55.205Z,0
2017-12-24T03:50:55.776Z,0
2017-12-24T03:51:56.347Z,0
2017-12-24T03:52:56.920Z,0
2017-12-24T03:53:57.491Z,0
2017-12-24T03:54:58.065Z,0
2017-12-24T03:55:58.633Z,0
2017-12-24T03:56:59.205Z,0
2017-12-24T03:57:59.780Z,0
2017-12-24T03:59:00.360Z,0
2017-12-24T04:00:00.931Z,0
2017-12-24T04:01:01.500Z,0
2017-12-24T04:02:02.085Z,0
2017-12-24T04:03:02.655Z,0
2017-12-24T04:04:03.226Z,0
2017-12-24T04:05:03.797Z,0
2017-12-24T04:06:04.371Z,0
2017-12-24T04:07:04.943Z,0
2017-12-24T04:08:05.515Z,0
2017-12-24T04:09:06.086Z,0
2017-12-24T04:10:06.657Z,0
2017-12-24T04:11:07.230Z,0
2017-12-24T04:12:07.800Z,0
2017-12-24T04:13:08.373Z,0
2017-12-24T04:14:08.943Z,0
2017-12-24T04:15:09.514Z,0
2017-12-24T04:16:10.083Z,0
2017-12-24T04:17:10.654Z,0
2017-12-24T04:18:11.226Z,0
2017-12-24T04:19:11.798Z,0
2017-12-24T04:20:12.382Z,0
2017-12-24T04:21:12.956Z,0
2017-12-24T04:22:13.528Z,0
2017-12-24T04:23:14.101Z,0
2017-12-24T04:24:14.670Z,0
2017-12-24T04:25:15.240Z,0
2017-12-24T04:26:15.811Z,0
2017-12-24T04:27:16.382Z,0
2017-12-24T04:28:16.954Z,0
2017-12-24T04:29:17.526Z,0
2017-12-24T04:30:18.097Z,0
2017-12-24T04:31:18.668Z,0
2017-12-24T04:32:19.239Z,0
2017-12-24T04:33:19.813Z,0
2017-12-24T04:34:20.384Z,0
2017-12-24T04:35:20.958Z,0
2017-12-24T04:36:21.529Z,0
2017-12-24T04:37:22.114Z,0
2017-12-24T04:38:22.747Z,0
2017-12-24T04:39:23.258Z,0
2017-12-24T04:40:23.830Z,0
2017-12-24T04:41:24.403Z,0
2017-12-24T04:42:24.975Z,0
2017-12-24T04:43:25.549Z,0
2017-12-24T04:44:26.135Z,0
2017-12-24T04:45:26.706Z,0
2017-12-24T04:46:27.300Z,0
2017-12-24T04:47:27.847Z,0
2017-12-24T04:48:28.418Z,0
2017-12-24T04:49:28.989Z,0
2017-12-24T04:50:29.561Z,0
2017-12-24T04:51:30.135Z,0
2017-12-24T04:52:30.706Z,0
2017-12-24T04:53:31.278Z,0
2017-12-24T04:54:31.862Z,0
2017-12-24T04:55:32.432Z,0
2017-12-24T04:56:33.003Z,0
2017-12-24T04:57:33.574Z,0
2017-12-24T04:58:34.161Z,0
2017-12-24T04:59:34.732Z,0
2017-12-24T05:00:35.302Z,0
2017-12-24T05:01:35.880Z,0
2017-12-24T05:02:36.447Z,0
2017-12-24T05:03:37.017Z,0
2017-12-24T05:04:37.591Z,0
2017-12-24T05:05:38.162Z,0
2017-12-24T05:06:38.733Z,0
2017-12-24T05:07:39.318Z,0
2017-12-24T05:08:39.888Z,0
2017-12-24T05:09:40.464Z,0
2017-12-24T05:10:41.030Z,0
2017-12-24T05:11:41.601Z,0
2017-12-24T05:12:42.174Z,0
2017-12-24T05:13:42.744Z,0
2017-12-24T05:14:43.317Z,0
2017-12-24T05:15:43.889Z,0
2017-12-24T05:16:44.459Z,0
2017-12-24T05:17:45.030Z,0
2017-12-24T05:18:45.601Z,0
2017-12-24T05:19:46.174Z,0
2017-12-24T05:20:46.744Z,0
2017-12-24T05:21:47.317Z,0
2017-12-24T05:22:47.887Z,0
2017-12-24T05:23:48.458Z,0
2017-12-24T05:24:49.030Z,0
2017-12-24T05:25:49.602Z,0
2017-12-24T05:26:50.174Z,0
2017-12-24T05:27:50.745Z,0
2017-12-24T05:28:51.318Z,0
2017-12-24T05:29:51.889Z,0
2017-12-24T05:30:52.459Z,0
2017-12-24T05:31:53.029Z,0
2017-12-24T05:32:53.599Z,0
2017-12-24T05:33:54.182Z,0
2017-12-24T05:34:54.755Z,0
2017-12-24T05:35:55.324Z,0
2017-12-24T05:36:55.898Z,0
2017-12-24T05:37:56.469Z,0
2017-12-24T05:38:57.042Z,0
2017-12-24T05:39:57.628Z,0
2017-12-24T05:40:58.199Z,0
2017-12-24T05:41:58.769Z,0
2017-12-24T05:42:59.347Z,0
2017-12-24T05:43:59.914Z,0
2017-12-24T05:45:00.485Z,0
2017-12-24T05:46:01.057Z,0
2017-12-24T05:47:01.640Z,0
2017-12-24T05:48:02.215Z,0
2017-12-24T05:49:02.784Z,0
2017-12-24T05:50:03.358Z,0
2017-12-24T05:51:03.925Z,0
2017-12-24T05:52:04.496Z,0
2017-12-24T05:53:05.068Z,0
2017-12-24T05:54:05.639Z,0
2017-12-24T05:55:06.211Z,0
2017-12-24T05:56:06.782Z,0
2017-12-24T05:57:07.365Z,0
2017-12-24T05:58:07.939Z,0
2017-12-24T05:59:08.509Z,0
2017-12-24T06:00:09.081Z,0
2017-12-24T06:01:09.653Z,0
2017-12-24T06:02:10.222Z,0
2017-12-24T06:03:10.794Z,0
2017-12-24T06:04:11.383Z,0
2017-12-24T06:05:11.949Z,0
2017-12-24T06:06:12.520Z,0
2017-12-24T06:07:13.093Z,0
2017-12-24T06:08:13.669Z,0
2017-12-24T06:09:14.248Z,0
2017-12-24T06:10:14.824Z,0
2017-12-24T06:11:15.396Z,0
2017-12-24T06:12:15.967Z,0
2017-12-24T06:13:16.553Z,0
2017-12-24T06:14:17.123Z,0
2017-12-24T06:15:17.698Z,0
2017-12-24T06:16:18.266Z,0
2017-12-24T06:17:18.851Z,0
2017-12-24T06:18:19.437Z,0
2017-12-24T06:19:20.008Z,0
2017-12-24T06:20:20.578Z,0
2017-12-24T06:21:21.148Z,0
2017-12-24T06:22:21.719Z,0
2017-12-24T06:23:22.291Z,0
2017-12-24T06:24:22.862Z,0
2017-12-24T06:25:23.436Z,0
2017-12-24T06:26:24.006Z,0
2017-12-24T06:27:24.577Z,0
2017-12-24T06:28:25.148Z,0
2017-12-24T06:29:25.720Z,0
2017-12-24T06:30:26.292Z,0
2017-12-24T06:31:26.864Z,0
2017-12-24T06:32:27.438Z,0
2017-12-24T06:33:28.009Z,0
2017-12-24T06:34:28.594Z,0
2017-12-24T06:35:29.165Z,0
2017-12-24T06:36:29.735Z,0
2017-12-24T06:37:30.304Z,0
2017-12-24T06:38:30.890Z,0
2017-12-24T06:39:31.462Z,0
2017-12-24T06:40:32.031Z,0
2017-12-24T06:41:32.602Z,0
2017-12-24T06:42:33.173Z,0
2017-12-24T06:43:33.746Z,0
2017-12-24T06:44:34.318Z,0
2017-12-24T06:45:34.900Z,0
2017-12-24T06:46:35.508Z,0
2017-12-24T06:47:36.044Z,0
2017-12-24T06:48:36.616Z,0
2017-12-24T06:49:37.201Z,0
2017-12-24T06:50:37.771Z,0
2017-12-24T06:51:38.344Z,0
2017-12-24T06:52:38.915Z,0
2017-12-24T06:53:39.502Z,0
2017-12-24T06:54:40.072Z,0
2017-12-24T06:55:40.641Z,0
2017-12-24T06:56:41.210Z,0
2017-12-24T06:57:41.782Z,0
2017-12-24T06:58:42.367Z,0
2017-12-24T06:59:42.937Z,0
2017-12-24T07:00:43.507Z,0
2017-12-24T07:01:44.080Z,0
2017-12-24T07:02:44.652Z,0
2017-12-24T07:03:45.223Z,0
2017-12-24T07:04:45.796Z,0
2017-12-24T07:05:46.366Z,0
2017-12-24T07:06:46.938Z,0
2017-12-24T07:07:47.521Z,0
2017-12-24T07:08:48.091Z,0
2017-12-24T07:09:48.662Z,0
2017-12-24T07:10:49.247Z,0
2017-12-24T07:11:49.819Z,0
2017-12-24T07:12:50.390Z,0
2017-12-24T07:13:50.961Z,0
2017-12-24T07:14:51.534Z,0
2017-12-24T07:15:52.107Z,0
2017-12-24T07:16:52.679Z,0
2017-12-24T07:17:53.250Z,0
2017-12-24T07:18:53.821Z,0
2017-12-24T07:19:54.407Z,0
2017-12-24T07:20:54.976Z,0
2017-12-24T07:21:55.549Z,0
2017-12-24T07:22:56.122Z,0
2017-12-24T07:23:56.695Z,0
2017-12-24T07:24:57.266Z,0
2017-12-24T07:25:57.837Z,0
2017-12-24T07:26:58.409Z,0
2017-12-24T07:27:58.996Z,0
2017-12-24T07:28:59.581Z,0
2017-12-24T07:30:00.166Z,0
2017-12-24T07:31:00.741Z,0
2017-12-24T07:32:01.310Z,0
2017-12-24T07:33:01.895Z,0
2017-12-24T07:34:02.468Z,4
2017-12-24T07:35:03.039Z,4
2017-12-24T07:36:03.609Z,4
2017-12-24T07:37:04.179Z,4
2017-12-24T07:38:04.751Z,4
2017-12-24T07:39:05.324Z,4
2017-12-24T07:40:05.896Z,0
2017-12-24T07:41:06.481Z,0
2017-12-24T07:42:07.056Z,4
2017-12-24T07:43:07.627Z,4
2017-12-24T07:44:08.197Z,4
2017-12-24T07:45:08.769Z,4
2017-12-24T07:46:09.340Z,4
2017-12-24T07:47:09.913Z,4
2017-12-24T07:48:10.484Z,4
2017-12-24T07:49:11.056Z,8
2017-12-24T07:50:11.629Z,8
2017-12-24T07:51:12.211Z,8
2017-12-24T07:52:12.785Z,8
2017-12-24T07:53:13.367Z,4
2017-12-24T07:54:13.938Z,4
2017-12-24T07:55:14.511Z,8
2017-12-24T07:56:15.096Z,8
2017-12-24T07:57:15.668Z,8
2017-12-24T07:58:16.240Z,8
2017-12-24T07:59:16.826Z,8
2017-12-24T08:00:17.397Z,8
2017-12-24T08:01:17.967Z,8
2017-12-24T08:02:18.588Z,12
2017-12-24T08:03:19.160Z,12
2017-12-24T08:04:19.732Z,12
2017-12-24T08:05:20.304Z,12
2017-12-24T08:06:20.876Z,12
2017-12-24T08:07:21.449Z,12
2017-12-24T08:08:22.020Z,16
2017-12-24T08:09:22.592Z,16
2017-12-24T08:10:23.178Z,12
2017-12-24T08:11:23.750Z,16
2017-12-24T08:12:24.320Z,12
2017-12-24T08:13:24.891Z,16
2017-12-24T08:14:25.463Z,16
2017-12-24T08:15:26.037Z,20
2017-12-24T08:16:26.611Z,20
2017-12-24T08:17:27.192Z,24
2017-12-24T08:18:27.765Z,20
2017-12-24T08:19:28.338Z,20
2017-12-24T08:20:28.926Z,20
2017-12-24T08:21:29.499Z,24
2017-12-24T08:22:30.084Z,20
2017-12-24T08:23:30.670Z,24
2017-12-24T08:24:31.243Z,24
2017-12-24T08:25:31.815Z,24
2017-12-24T08:26:32.387Z,24
2017-12-24T08:27:32.962Z,28
2017-12-24T08:28:33.531Z,24
2017-12-24T08:29:34.104Z,28
2017-12-24T08:30:34.676Z,24
2017-12-24T08:31:35.248Z,28
2017-12-24T08:32:35.825Z,28
2017-12-24T08:33:36.403Z,32
2017-12-24T08:34:36.975Z,36
2017-12-24T08:35:37.548Z,32
2017-12-24T08:36:38.121Z,32
2017-12-24T08:37:38.694Z,28
2017-12-24T08:38:39.268Z,32
2017-12-24T08:39:39.840Z,28
2017-12-24T08:40:40.413Z,32
2017-12-24T08:41:40.998Z,32
2017-12-24T08:42:41.573Z,32
2017-12-24T08:43:42.146Z,32
2017-12-24T08:44:42.718Z,40
2017-12-24T08:45:43.290Z,44
2017-12-24T08:46:43.863Z,40
2017-12-24T08:47:44.438Z,36
2017-12-24T08:48:45.008Z,36
2017-12-24T08:49:45.584Z,32
2017-12-24T08:50:46.157Z,36
2017-12-24T08:51:46.724Z,40
2017-12-24T08:52:47.298Z,48
2017-12-24T08:53:47.872Z,52
2017-12-24T08:54:48.452Z,56
2017-12-24T08:55:49.017Z,48
2017-12-24T08:56:49.604Z,48
2017-12-24T08:57:50.176Z,48
2017-12-24T08:58:50.759Z,48
2017-12-24T08:59:51.326Z,44
2017-12-24T09:00:51.895Z,56
2017-12-24T09:01:52.467Z,48
2017-12-24T09:02:53.039Z,48
2017-12-24T09:03:53.613Z,48
2017-12-24T09:04:54.185Z,48
2017-12-24T09:05:54.757Z,52
2017-12-24T09:06:55.328Z,52
2017-12-24T09:07:55.900Z,52
2017-12-24T09:08:56.473Z,56
2017-12-24T09:09:57.046Z,56
2017-12-24T09:10:57.617Z,56
2017-12-24T09:11:58.188Z,48
2017-12-24T09:12:58.760Z,48
2017-12-24T09:13:59.331Z,48
2017-12-24T09:14:59.902Z,48
2017-12-24T09:16:00.476Z,44
2017-12-24T09:17:01.048Z,48
2017-12-24T09:18:01.620Z,48
2017-12-24T09:19:02.192Z,56
2017-12-24T09:20:02.765Z,64
2017-12-24T09:21:03.338Z,68
2017-12-24T09:22:03.909Z,64
2017-12-24T09:23:04.483Z,64
2017-12-24T09:24:05.054Z,60
2017-12-24T09:25:05.625Z,68
2017-12-24T09:26:06.199Z,64
2017-12-24T09:27:06.772Z,76
2017-12-24T09:28:07.345Z,76
2017-12-24T09:29:07.918Z,72
2017-12-24T09:30:08.492Z,76
2017-12-24T09:31:09.063Z,76
2017-12-24T09:32:09.650Z,88
2017-12-24T09:33:10.223Z,88
2017-12-24T09:34:10.809Z,84
2017-12-24T09:35:11.395Z,76
2017-12-24T09:36:11.969Z,76
2017-12-24T09:37:12.543Z,72
2017-12-24T09:38:13.114Z,76
2017-12-24T09:39:13.700Z,80
2017-12-24T09:40:14.273Z,76
2017-12-24T09:41:14.845Z,80
2017-12-24T09:42:15.420Z,80
2017-12-24T09:43:15.990Z,84
2017-12-24T09:44:16.564Z,96
2017-12-24T09:45:17.137Z,104
2017-12-24T09:46:17.710Z,96
2017-12-24T09:47:18.283Z,84
2017-12-24T09:48:18.857Z,92
2017-12-24T09:49:19.428Z,84
2017-12-24T09:50:20.001Z,88
2017-12-24T09:51:20.575Z,100
2017-12-24T09:52:21.148Z,88
2017-12-24T09:53:21.720Z,96
2017-12-24T09:54:22.292Z,88
2017-12-24T09:55:22.864Z,92
2017-12-24T09:56:23.437Z,104
2017-12-24T09:57:24.011Z,108
2017-12-24T09:58:24.584Z,104
2017-12-24T09:59:25.161Z,88
2017-12-24T10:00:25.741Z,96
2017-12-24T10:01:26.313Z,96
2017-12-24T10:02:26.887Z,108
2017-12-24T10:03:27.459Z,112
2017-12-24T10:04:28.033Z,88
2017-12-24T10:05:28.606Z,96
2017-12-24T10:06:29.177Z,92
2017-12-24T10:07:29.750Z,92
2017-12-24T10:08:30.621Z,96
2017-12-24T10:09:31.195Z,84
2017-12-24T10:10:31.783Z,76
2017-12-24T10:11:32.356Z,84
2017-12-24T10:12:32.928Z,72
2017-12-24T10:13:33.500Z,76
2017-12-24T10:14:34.071Z,84
2017-12-24T10:15:34.645Z,84
2017-12-24T10:16:35.219Z,72
2017-12-24T10:17:35.790Z,72
2017-12-24T10:18:36.362Z,72
2017-12-24T10:19:36.934Z,64
2017-12-24T10:20:37.506Z,60
2017-12-24T10:21:38.079Z,68
2017-12-24T10:22:38.650Z,72
2017-12-24T10:23:39.222Z,64
2017-12-24T10:24:39.795Z,60
2017-12-24T10:25:40.398Z,64
2017-12-24T10:26:40.942Z,64
2017-12-24T10:27:41.513Z,64
2017-12-24T10:28:42.088Z,60
2017-12-24T10:29:42.659Z,56
2017-12-24T10:30:43.244Z,52
2017-12-24T10:31:43.815Z,56
2017-12-24T10:32:44.387Z,60
2017-12-24T10:33:44.959Z,56
2017-12-24T10:34:45.533Z,64
2017-12-24T10:35:46.109Z,68
2017-12-24T10:36:46.693Z,64
2017-12-24T10:37:47.280Z,64
2017-12-24T10:38:47.854Z,64
2017-12-24T10:39:48.427Z,64
2017-12-24T10:40:49.012Z,60
2017-12-24T10:41:49.584Z,76
2017-12-24T10:42:50.156Z,80
2017-12-24T10:43:50.778Z,72
2017-12-24T10:44:51.365Z,68
2017-12-24T10:45:51.952Z,64
2017-12-24T10:46:52.527Z,68
2017-12-24T10:47:53.100Z,56
2017-12-24T10:48:53.672Z,52
2017-12-24T10:49:54.245Z,64
2017-12-24T10:50:54.817Z,76
2017-12-24T10:51:55.391Z,72
2017-12-24T10:52:55.967Z,64
2017-12-24T10:53:56.538Z,72
2017-12-24T10:54:57.113Z,68
2017-12-24T10:55:57.684Z,68
2017-12-24T10:56:58.258Z,64
2017-12-24T10:57:58.830Z,64
2017-12-24T10:58:59.402Z,76
2017-12-24T10:59:59.977Z,88
2017-12-24T11:01:00.549Z,80
2017-12-24T11:02:01.121Z,84
2017-12-24T11:03:01.692Z,84
2017-12-24T11:04:02.267Z,76
2017-12-24T11:05:02.843Z,80
2017-12-24T11:06:03.411Z,84
2017-12-24T11:07:03.982Z,80
2017-12-24T11:08:04.568Z,72
2017-12-24T11:09:05.140Z,72
2017-12-24T11:10:05.712Z,68
2017-12-24T11:11:06.285Z,72
2017-12-24T11:12:06.862Z,68
2017-12-24T11:13:07.429Z,72
2017-12-24T11:14:08.008Z,76
2017-12-24T11:15:08.588Z,72
2017-12-24T11:16:09.172Z,68
2017-12-24T11:17:09.745Z,76
2017-12-24T11:18:10.318Z,76
2017-12-24T11:19:10.892Z,72
2017-12-24T11:20:11.466Z,76
2017-12-24T11:21:12.038Z,80
2017-12-24T11:22:12.608Z,80
2017-12-24T11:23:13.195Z,72
2017-12-24T11:24:13.766Z,72
2017-12-24T11:25:14.338Z,68
2017-12-24T11:26:14.923Z,64
2017-12-24T11:27:15.497Z,60
2017-12-24T11:28:16.070Z,60
2017-12-24T11:29:16.644Z,48
2017-12-24T11:30:17.218Z,48
2017-12-24T11:31:17.806Z,56
2017-12-24T11:32:18.374Z,52
2017-12-24T11:33:18.948Z,56
2017-12-24T11:34:19.538Z,48
2017-12-24T11:35:20.119Z,48
2017-12-24T11:36:20.690Z,44
2017-12-24T11:37:21.266Z,48
2017-12-24T11:38:21.834Z,48
2017-12-24T11:39:22.408Z,48
2017-12-24T11:40:22.982Z,52
2017-12-24T11:41:23.567Z,52
2017-12-24T11:42:24.139Z,44
2017-12-24T11:43:24.712Z,48
2017-12-24T11:44:25.283Z,52
2017-12-24T11:45:25.857Z,60
2017-12-24T11:46:26.451Z,64
2017-12-24T11:47:27.030Z,56
2017-12-24T11:48:27.602Z,60
2017-12-24T11:49:28.175Z,56
2017-12-24T11:50:28.747Z,60
2017-12-24T11:51:29.319Z,60
2017-12-24T11:52:29.890Z,68
2017-12-24T11:53:30.464Z,64
2017-12-24T11:54:31.036Z,68
2017-12-24T11:55:31.608Z,76
2017-12-24T11:56:32.180Z,64
2017-12-24T11:57:32.767Z,64
2017-12-24T11:58:33.339Z,68
2017-12-24T11:59:33.910Z,72
2017-12-24T12:00:34.485Z,72
2017-12-24T12:01:35.057Z,76
2017-12-24T12:02:35.629Z,80
2017-12-24T12:03:36.200Z,84
2017-12-24T12:04:36.773Z,72
2017-12-24T12:05:37.351Z,76
2017-12-24T12:06:37.918Z,76
2017-12-24T12:07:38.491Z,72
2017-12-24T12:08:39.271Z,72
2017-12-24T12:09:39.842Z,68
2017-12-24T12:10:40.414Z,80
2017-12-24T12:11:40.986Z,68
2017-12-24T12:12:41.561Z,76
2017-12-24T12:13:42.132Z,76
2017-12-24T12:14:42.702Z,72
2017-12-24T12:15:43.274Z,80
2017-12-24T12:16:43.847Z,80
2017-12-24T12:17:44.420Z,72
2017-12-24T12:18:44.992Z,72
2017-12-24T12:19:45.564Z,72
2017-12-24T12:20:46.136Z,72
2017-12-24T12:21:46.709Z,68
2017-12-24T12:22:47.288Z,76
2017-12-24T12:23:47.853Z,72
2017-12-24T12:24:48.426Z,72
2017-12-24T12:25:49.012Z,76
2017-12-24T12:26:49.583Z,72
2017-12-24T12:27:50.154Z,80
2017-12-24T12:28:50.726Z,84
2017-12-24T12:29:51.300Z,88
2017-12-24T12:30:51.872Z,92
2017-12-24T12:31:52.444Z,80
2017-12-24T12:32:53.015Z,84
2017-12-24T12:33:53.625Z,88
2017-12-24T12:34:54.160Z,100
2017-12-24T12:35:54.734Z,84
2017-12-24T12:36:55.308Z,76
2017-12-24T12:37:55.894Z,76
2017-12-24T12:38:56.466Z,72
2017-12-24T12:39:57.050Z,80
2017-12-24T12:40:57.620Z,72
2017-12-24T12:41:58.192Z,72
2017-12-24T12:42:58.778Z,72
2017-12-24T12:43:59.352Z,76
2017-12-24T12:44:59.923Z,64
2017-12-24T12:46:00.507Z,80
2017-12-24T12:47:01.079Z,80
2017-12-24T12:48:01.652Z,92
2017-12-24T12:49:02.227Z,96
2017-12-24T12:50:02.814Z,88
2017-12-24T12:51:03.385Z,88
2017-12-24T12:52:03.957Z,68
2017-12-24T12:53:04.528Z,72
2017-12-24T12:54:05.101Z,72
2017-12-24T12:55:05.676Z,80
2017-12-24T12:56:06.247Z,80
2017-12-24T12:57:06.820Z,76
2017-12-24T12:58:07.408Z,80
2017-12-24T12:59:07.993Z,80
2017-12-24T13:00:08.566Z,72
2017-12-24T13:01:09.140Z,72
2017-12-24T13:02:09.722Z,64
2017-12-24T13:03:10.292Z,60
2017-12-24T13:04:10.865Z,60
2017-12-24T13:05:11.439Z,56
2017-12-24T13:06:12.015Z,48
2017-12-24T13:07:12.585Z,48
2017-12-24T13:08:13.157Z,56
2017-12-24T13:09:13.730Z,60
2017-12-24T13:10:14.304Z,56
2017-12-24T13:11:14.875Z,52
2017-12-24T13:12:15.447Z,52
2017-12-24T13:13:16.019Z,52
2017-12-24T13:14:16.593Z,52
2017-12-24T13:15:17.166Z,44
2017-12-24T13:16:17.740Z,48
2017-12-24T13:17:18.309Z,52
2017-12-24T13:18:18.880Z,52
2017-12-24T13:19:19.451Z,52
2017-12-24T13:20:20.025Z,52
2017-12-24T13:21:20.600Z,44
2017-12-24T13:22:21.183Z,44
2017-12-24T13:23:21.756Z,48
2017-12-24T13:24:22.342Z,52
2017-12-24T13:25:22.913Z,56
2017-12-24T13:26:23.484Z,52
2017-12-24T13:27:24.056Z,48
2017-12-24T13:28:24.628Z,44
2017-12-24T13:29:25.205Z,44
2017-12-24T13:30:25.775Z,44
2017-12-24T13:31:26.347Z,44
2017-12-24T13:32:26.934Z,52
2017-12-24T13:33:27.508Z,52
2017-12-24T13:34:28.077Z,52
2017-12-24T13:35:28.651Z,44
2017-12-24T13:36:29.223Z,40
2017-12-24T13:37:29.798Z,44
2017-12-24T13:38:30.370Z,48
2017-12-24T13:39:30.943Z,52
2017-12-24T13:40:31.515Z,60
2017-12-24T13:41:32.087Z,68
2017-12-24T13:42:32.660Z,64
2017-12-24T13:43:33.235Z,60
2017-12-24T13:44:33.810Z,64
2017-12-24T13:45:34.379Z,40
2017-12-24T13:46:34.951Z,40
2017-12-24T13:47:35.524Z,48
2017-12-24T13:48:36.097Z,56
2017-12-24T13:49:36.685Z,60
2017-12-24T13:50:37.256Z,56
2017-12-24T13:51:37.830Z,60
2017-12-24T13:52:38.405Z,56
2017-12-24T13:53:38.974Z,56
2017-12-24T13:54:39.546Z,52
2017-12-24T13:55:40.119Z,40
2017-12-24T13:56:40.693Z,36
2017-12-24T13:57:41.280Z,44
2017-12-24T13:58:41.852Z,40
2017-12-24T13:59:42.424Z,36
2017-12-24T14:00:42.994Z,36
2017-12-24T14:01:43.566Z,32
2017-12-24T14:02:44.138Z,32
2017-12-24T14:03:44.723Z,28
2017-12-24T14:04:45.297Z,28
2017-12-24T14:05:45.870Z,24
2017-12-24T14:06:46.442Z,24
2017-12-24T14:07:47.013Z,28
2017-12-24T14:08:47.588Z,28
2017-12-24T14:09:48.171Z,28
2017-12-24T14:10:48.742Z,32
2017-12-24T14:11:49.313Z,32
2017-12-24T14:12:49.886Z,32
2017-12-24T14:13:50.471Z,28
2017-12-24T14:14:51.055Z,28
2017-12-24T14:15:51.627Z,32
2017-12-24T14:16:52.201Z,28
2017-12-24T14:17:52.777Z,24
2017-12-24T14:18:53.347Z,24
2017-12-24T14:19:53.920Z,28
2017-12-24T14:20:54.491Z,32
2017-12-24T14:21:55.062Z,32
2017-12-24T14:22:55.637Z,24
2017-12-24T14:23:56.208Z,24
2017-12-24T14:24:56.781Z,24
2017-12-24T14:25:57.352Z,20
2017-12-24T14:26:57.925Z,20
2017-12-24T14:27:58.500Z,24
2017-12-24T14:28:59.071Z,24
2017-12-24T14:29:59.644Z,28
2017-12-24T14:31:00.216Z,20
2017-12-24T14:32:00.789Z,20
2017-12-24T14:33:01.363Z,20
2017-12-24T14:34:01.960Z,16
2017-12-24T14:35:02.520Z,16
2017-12-24T14:36:03.093Z,16
2017-12-24T14:37:03.665Z,16
2017-12-24T14:38:04.237Z,16
2017-12-24T14:39:04.810Z,12
2017-12-24T14:40:05.387Z,16
2017-12-24T14:41:05.957Z,12